createdAt,value
2018-09-28T00:02:50.999Z,9.00
2018-09-28T00:07:55.429Z,8.30
2018-09-28T00:13:01.044Z,10.48
2018-09-28T00:18:05.495Z,9.50
2018-09-28T00:23:09.882Z,8.30
2018-09-28T00:28:14.843Z,7.78
2018-09-28T00:33:19.532Z,10.40
2018-09-28T00:38:23.959Z,9.30
2018-09-28T00:43:28.494Z,7.45
2018-09-28T00:48:33.048Z,8.90
2018-09-28T00:53:38.532Z,10.03
2018-09-28T00:58:43.360Z,8.38
2018-09-28T01:03:48.074Z,8.43
2018-09-28T01:08:52.647Z,8.78
2018-09-28T01:13:57.168Z,7.60
2018-09-28T01:19:01.576Z,9.38
2018-09-28T01:24:06.219Z,8.68
2018-09-28T01:29:10.681Z,8.30
2018-09-28T01:34:15.130Z,9.60
2018-09-28T01:39:19.980Z,10.05
2018-09-28T01:44:25.149Z,10.25
2018-09-28T01:49:29.757Z,9.40
2018-09-28T01:54:34.771Z,9.65
2018-09-28T01:59:39.269Z,10.75
2018-09-28T02:04:44.732Z,9.45
2018-09-28T02:09:49.439Z,11.03
2018-09-28T02:14:54.335Z,9.20
2018-09-28T02:19:58.770Z,9.05
2018-09-28T02:25:03.716Z,12.15
2018-09-28T02:30:08.859Z,10.70
2018-09-28T02:35:13.324Z,8.98
2018-09-28T02:40:17.842Z,7.45
2018-09-28T02:45:22.307Z,11.00
2018-09-28T02:50:27.256Z,7.53
2018-09-28T02:55:31.536Z,10.35
2018-09-28T03:00:36.099Z,9.63
2018-09-28T03:05:40.720Z,10.63
2018-09-28T03:10:45.267Z,8.53
2018-09-28T03:15:49.891Z,8.05
2018-09-28T03:20:54.406Z,8.23
2018-09-28T03:25:59.019Z,9.60
2018-09-28T03:31:04.137Z,8.50
2018-09-28T03:36:08.988Z,10.30
2018-09-28T03:41:13.305Z,10.40
2018-09-28T03:46:17.938Z,12.80
2018-09-28T03:51:22.371Z,11.00
2018-09-28T03:56:27.035Z,9.43
2018-09-28T04:01:31.488Z,12.47
2018-09-28T04:06:35.931Z,12.13
2018-09-28T04:11:40.345Z,13.13
2018-09-28T04:16:44.716Z,14.00
2018-09-28T04:21:54.157Z,13.08
2018-09-28T04:26:58.510Z,13.07
2018-09-28T04:32:03.271Z,13.80
2018-09-28T04:37:08.125Z,13.00
2018-09-28T04:42:12.861Z,13.33
2018-09-28T04:47:17.351Z,13.83
2018-09-28T04:52:22.696Z,14.90
2018-09-28T04:57:26.964Z,13.68
2018-09-28T05:02:31.323Z,11.37
2018-09-28T05:07:35.736Z,10.63
2018-09-28T05:12:40.520Z,13.87
2018-09-28T05:17:45.927Z,15.07
2018-09-28T05:22:50.802Z,14.00
2018-09-28T05:27:55.501Z,15.03
2018-09-28T05:33:00.530Z,13.73
2018-09-28T05:38:05.054Z,14.60
2018-09-28T05:43:09.725Z,18.97
2018-09-28T05:48:14.518Z,13.45
2018-09-28T05:53:19.061Z,17.25
2018-09-28T05:58:28.678Z,23.47
2018-09-28T06:03:33.117Z,18.50
2018-09-28T06:08:37.695Z,17.25
2018-09-28T06:13:42.133Z,13.60
2018-09-28T06:18:47.441Z,12.18
2018-09-28T06:23:51.907Z,15.38
2018-09-28T06:28:56.361Z,15.48
2018-09-28T06:34:00.728Z,12.23
2018-09-28T06:39:06.737Z,15.78
2018-09-28T06:44:11.064Z,14.85
2018-09-28T06:49:15.611Z,20.48
2018-09-28T06:54:20.771Z,15.03
2018-09-28T06:59:25.705Z,13.98
2018-09-28T07:04:30.127Z,13.70
2018-09-28T07:09:34.753Z,13.28
2018-09-28T07:14:39.117Z,15.98
2018-09-28T07:19:44.197Z,12.85
2018-09-28T07:24:48.710Z,14.58
2018-09-28T07:29:52.965Z,16.32
2018-09-28T07:34:57.335Z,17.32
2018-09-28T07:40:01.772Z,19.65
2018-09-28T07:45:07.320Z,18.15
2018-09-28T07:50:11.908Z,70.40
2018-09-28T07:55:16.389Z,21.35
2018-09-28T08:00:21.532Z,20.35
2018-09-28T08:05:25.963Z,18.95
2018-09-28T08:10:30.588Z,19.10
2018-09-28T08:15:36.834Z,21.85
2018-09-28T08:20:41.496Z,18.50
2018-09-28T08:25:45.901Z,20.70
2018-09-28T08:30:50.335Z,15.93
2018-09-28T08:35:55.223Z,17.25
2018-09-28T08:40:59.693Z,16.55
2018-09-28T08:46:04.460Z,18.12
2018-09-28T08:51:10.117Z,21.60
2018-09-28T08:56:14.796Z,18.55
2018-09-28T09:01:20.379Z,21.00
2018-09-28T09:06:25.361Z,16.95
2018-09-28T09:11:29.895Z,16.75
2018-09-28T09:16:34.869Z,16.17
2018-09-28T09:21:42.348Z,14.35
2018-09-28T09:26:47.630Z,16.05
2018-09-28T09:31:52.976Z,14.15
2018-09-28T09:36:57.724Z,17.05
2018-09-28T09:42:02.689Z,15.43
2018-09-28T09:47:07.486Z,16.67
2018-09-28T09:52:12.727Z,14.95
2018-09-28T09:57:17.555Z,15.50
2018-09-28T10:03:31.118Z,15.70
2018-09-28T10:08:37.701Z,11.55
2018-09-28T10:13:42.083Z,12.13
2018-09-28T10:18:47.772Z,10.20
2018-09-28T10:23:53.353Z,13.28
2018-09-28T10:28:59.567Z,12.10
2018-09-28T10:34:06.036Z,12.55
2018-09-28T10:39:11.600Z,13.00
2018-09-28T10:44:16.136Z,12.15
2018-09-28T10:49:20.838Z,9.68
2018-09-28T10:54:25.169Z,15.38
2018-09-28T10:59:29.623Z,14.55
2018-09-28T11:04:34.059Z,14.43
2018-09-28T11:09:38.404Z,16.32
2018-09-28T11:14:42.807Z,11.97
2018-09-28T11:19:47.251Z,13.60
2018-09-28T11:24:51.787Z,13.00
2018-09-28T11:29:56.424Z,15.80
2018-09-28T11:35:01.172Z,13.35
2018-09-28T11:40:05.964Z,14.18
2018-09-28T11:45:10.543Z,10.78
2018-09-28T11:50:15.136Z,11.88
2018-09-28T11:55:19.569Z,8.38
2018-09-28T12:00:23.790Z,12.73
2018-09-28T12:05:28.840Z,10.05
2018-09-28T12:10:33.336Z,8.45
2018-09-28T12:15:38.069Z,6.58
2018-09-28T12:20:42.318Z,8.65
2018-09-28T12:25:46.764Z,6.25
2018-09-28T12:30:52.960Z,8.08
2018-09-28T12:35:57.513Z,6.58
2018-09-28T12:41:02.666Z,7.85
2018-09-28T12:46:07.231Z,8.05
2018-09-28T12:51:11.672Z,7.95
2018-09-28T12:56:16.176Z,9.70
2018-09-28T13:01:21.186Z,4.10
2018-09-28T13:06:26.202Z,6.50
2018-09-28T13:11:30.581Z,6.65
2018-09-28T13:16:35.038Z,5.53
2018-09-28T13:21:40.401Z,6.30
2018-09-28T13:26:45.264Z,6.42
2018-09-28T13:31:50.032Z,6.78
2018-09-28T13:36:54.698Z,3.60
2018-09-28T13:41:59.327Z,3.87
2018-09-28T13:47:03.780Z,3.52
2018-09-28T13:52:08.463Z,6.03
2018-09-28T13:57:12.719Z,5.35
2018-09-28T14:02:17.247Z,5.67
2018-09-28T14:07:22.073Z,3.87
2018-09-28T14:12:26.599Z,5.78
2018-09-28T14:17:31.251Z,7.17
2018-09-28T14:22:35.549Z,4.40
2018-09-28T14:27:40.483Z,7.42
2018-09-28T14:32:44.980Z,3.25
2018-09-28T14:37:49.331Z,5.20
2018-09-28T14:42:54.539Z,3.25
2018-09-28T14:47:59.052Z,2.70
2018-09-28T14:53:04.106Z,5.40
2018-09-28T14:58:08.677Z,4.70
2018-09-28T15:03:13.375Z,5.47
2018-09-28T15:08:17.780Z,10.20
2018-09-28T15:13:22.291Z,9.73
2018-09-28T15:18:26.832Z,7.95
2018-09-28T15:23:31.343Z,5.00
2018-09-28T15:28:38.758Z,5.10
2018-09-28T15:33:43.007Z,4.60
2018-09-28T15:38:47.453Z,5.60
2018-09-28T15:43:52.231Z,3.55
2018-09-28T15:48:56.912Z,2.30
2018-09-28T15:54:01.217Z,5.40
2018-09-28T15:59:05.742Z,3.37
2018-09-28T16:04:10.306Z,3.77
2018-09-28T16:09:14.742Z,3.15
2018-09-28T16:14:18.997Z,4.80
2018-09-28T16:19:24.126Z,5.45
2018-09-28T16:24:29.365Z,8.73
2018-09-28T16:29:33.548Z,3.45
2018-09-28T16:34:38.467Z,14.63
2018-09-28T16:39:42.843Z,6.12
2018-09-28T16:44:47.297Z,3.10
2018-09-28T16:49:51.698Z,9.00
2018-09-28T16:54:56.369Z,7.60
2018-09-28T17:00:01.577Z,4.35
2018-09-28T17:05:06.216Z,7.37
2018-09-28T17:10:10.748Z,3.25
2018-09-28T17:15:16.749Z,8.38
2018-09-28T17:20:22.047Z,3.10
2018-09-28T17:25:26.593Z,5.12
2018-09-28T17:30:30.830Z,5.95
2018-09-28T17:35:35.141Z,4.53
2018-09-28T17:40:39.558Z,4.60
2018-09-28T17:45:44.439Z,8.33
2018-09-28T17:50:49.061Z,4.62
2018-09-28T17:55:53.522Z,4.45
2018-09-28T18:00:58.012Z,3.92
2018-09-28T18:06:02.896Z,7.47
2018-09-28T18:11:07.697Z,6.33
2018-09-28T18:16:12.078Z,7.30
2018-09-28T18:21:16.507Z,5.12
2018-09-28T18:26:21.594Z,5.87
2018-09-28T18:31:26.119Z,5.25
2018-09-28T18:36:33.356Z,6.33
2018-09-28T18:41:37.960Z,6.25
2018-09-28T18:46:44.008Z,5.55
2018-09-28T18:51:48.543Z,6.20
2018-09-28T18:56:52.936Z,4.55
2018-09-28T19:01:57.855Z,3.62
2018-09-28T19:07:02.461Z,3.35
2018-09-28T19:12:06.918Z,2.80
2018-09-28T19:17:11.392Z,6.37
2018-09-28T19:22:15.969Z,5.15
2018-09-28T19:27:20.128Z,4.25
2018-09-28T19:32:24.762Z,6.30
2018-09-28T19:37:29.330Z,3.95
2018-09-28T19:42:33.867Z,4.37
2018-09-28T19:47:38.370Z,7.75
2018-09-28T19:52:43.649Z,6.30
2018-09-28T19:57:48.799Z,7.45
2018-09-28T20:02:54.842Z,12.98
2018-09-28T20:07:59.222Z,6.83
2018-09-28T20:13:04.591Z,8.28
2018-09-28T20:18:08.975Z,11.48
2018-09-28T20:23:13.500Z,10.88
2018-09-28T20:28:18.073Z,15.53
2018-09-28T20:33:22.615Z,12.60
2018-09-28T20:38:27.483Z,13.18
2018-09-28T20:43:32.758Z,15.40
2018-09-28T20:48:39.364Z,16.95
2018-09-28T20:53:44.077Z,14.58
2018-09-28T20:58:49.107Z,14.23
2018-09-28T21:03:53.633Z,14.58
2018-09-28T21:08:58.145Z,14.55
2018-09-28T21:14:03.345Z,13.80
2018-09-28T21:19:08.587Z,18.05
2018-09-28T21:24:14.280Z,14.38
2018-09-28T21:34:23.262Z,13.50
2018-09-28T21:39:28.011Z,13.98
2018-09-28T21:44:32.867Z,11.10
2018-09-28T21:49:37.383Z,11.30
2018-09-28T21:54:42.736Z,10.72
2018-09-28T21:59:47.348Z,10.03
2018-09-28T22:04:52.957Z,10.15
2018-09-28T22:09:58.202Z,8.03
2018-09-28T22:15:02.684Z,9.60
2018-09-28T22:20:08.316Z,8.13
2018-09-28T22:25:13.170Z,7.15
2018-09-28T22:30:18.631Z,8.55
2018-09-28T22:35:23.203Z,6.92
2018-09-28T22:40:27.871Z,6.45
2018-09-28T22:45:32.600Z,6.25
2018-09-28T22:50:37.352Z,6.67
2018-09-28T22:55:42.428Z,5.33
2018-09-28T23:00:46.977Z,4.95
2018-09-28T23:05:51.487Z,7.08
2018-09-28T23:10:56.112Z,6.55
2018-09-28T23:16:00.729Z,5.58
2018-09-28T23:21:05.526Z,12.20
2018-09-28T23:26:11.265Z,4.85
2018-09-28T23:31:15.824Z,9.38
2018-09-28T23:36:20.547Z,7.55
2018-09-28T23:41:25.343Z,6.03
2018-09-28T23:46:29.777Z,6.40
2018-09-28T23:51:34.323Z,6.78
2018-09-28T23:56:38.729Z,5.67
